sensor_id;sensor_type;location;lat;lon;timestamp;temperature;humidity
54576;DHT22;40472;53.486;14.542;2023-08-07T00:00:36;11.70;99.90
54576;DHT22;40472;53.486;14.542;2023-08-07T00:03:02;11.70;99.90
54576;DHT22;40472;53.486;14.542;2023-08-07T00:05:28;11.70;99.90
54576;DHT22;40472;53.486;14.542;2023-08-07T00:07:54;11.70;99.90
54576;DHT22;40472;53.486;14.542;2023-08-07T00:10:20;11.70;99.90
54576;DHT22;40472;53.486;14.542;2023-08-07T00:12:45;11.70;99.90
54576;DHT22;40472;53.486;14.542;2023-08-07T00:15:11;11.70;99.90
54576;DHT22;40472;53.486;14.542;2023-08-07T00:17:37;11.70;99.90
54576;DHT22;40472;53.486;14.542;2023-08-07T00:20:04;11.70;99.90
54576;DHT22;40472;53.486;14.542;2023-08-07T00:22:30;11.70;99.90
54576;DHT22;40472;53.486;14.542;2023-08-07T00:24:56;11.70;99.90
54576;DHT22;40472;53.486;14.542;2023-08-07T00:27:22;11.80;99.90
54576;DHT22;40472;53.486;14.542;2023-08-07T00:29:48;11.80;99.90
54576;DHT22;40472;53.486;14.542;2023-08-07T00:32:14;11.80;99.90
54576;DHT22;40472;53.486;14.542;2023-08-07T00:34:39;11.80;99.90
54576;DHT22;40472;53.486;14.542;2023-08-07T00:37:05;11.80;99.90
54576;DHT22;40472;53.486;14.542;2023-08-07T00:39:31;11.80;99.90
54576;DHT22;40472;53.486;14.542;2023-08-07T00:41:57;11.80;99.90
54576;DHT22;40472;53.486;14.542;2023-08-07T00:44:23;11.80;99.90
54576;DHT22;40472;53.486;14.542;2023-08-07T00:46:49;11.80;99.90
54576;DHT22;40472;53.486;14.542;2023-08-07T00:49:15;11.80;99.90
54576;DHT22;40472;53.486;14.542;2023-08-07T00:51:41;11.80;99.90
54576;DHT22;40472;53.486;14.542;2023-08-07T00:54:10;11.80;99.90
54576;DHT22;40472;53.486;14.542;2023-08-07T00:56:37;11.80;99.90
54576;DHT22;40472;53.486;14.542;2023-08-07T00:59:03;11.80;99.90
54576;DHT22;40472;53.486;14.542;2023-08-07T01:01:29;11.80;99.90
54576;DHT22;40472;53.486;14.542;2023-08-07T01:03:55;11.80;99.90
54576;DHT22;40472;53.486;14.542;2023-08-07T01:06:21;11.80;99.90
54576;DHT22;40472;53.486;14.542;2023-08-07T01:08:47;11.80;99.90
54576;DHT22;40472;53.486;14.542;2023-08-07T01:11:39;11.80;99.90
54576;DHT22;40472;53.486;14.542;2023-08-07T01:17:02;11.80;99.90
54576;DHT22;40472;53.486;14.542;2023-08-07T01:19:31;11.80;99.90
54576;DHT22;40472;53.486;14.542;2023-08-07T01:22:16;11.80;99.90
54576;DHT22;40472;53.486;14.542;2023-08-07T01:24:44;11.80;99.90
54576;DHT22;40472;53.486;14.542;2023-08-07T01:30:22;11.70;99.90
54576;DHT22;40472;53.486;14.542;2023-08-07T01:33:49;11.70;99.90
54576;DHT22;40472;53.486;14.542;2023-08-07T01:35:57;11.70;99.90
54576;DHT22;40472;53.486;14.542;2023-08-07T01:38:25;11.70;99.90
54576;DHT22;40472;53.486;14.542;2023-08-07T01:40:52;11.70;99.90
54576;DHT22;40472;53.486;14.542;2023-08-07T01:43:19;11.70;99.90
54576;DHT22;40472;53.486;14.542;2023-08-07T01:45:45;11.70;99.90
54576;DHT22;40472;53.486;14.542;2023-08-07T01:48:11;11.70;99.90
54576;DHT22;40472;53.486;14.542;2023-08-07T01:50:38;11.70;99.90
54576;DHT22;40472;53.486;14.542;2023-08-07T01:53:04;11.70;99.90
54576;DHT22;40472;53.486;14.542;2023-08-07T01:55:30;11.70;99.90
54576;DHT22;40472;53.486;14.542;2023-08-07T01:57:55;11.70;99.90
54576;DHT22;40472;53.486;14.542;2023-08-07T02:00:21;11.70;99.90
54576;DHT22;40472;53.486;14.542;2023-08-07T02:02:47;11.70;99.90
54576;DHT22;40472;53.486;14.542;2023-08-07T02:05:13;11.70;99.90
54576;DHT22;40472;53.486;14.542;2023-08-07T02:07:39;11.70;99.90
54576;DHT22;40472;53.486;14.542;2023-08-07T02:10:05;11.70;99.90
54576;DHT22;40472;53.486;14.542;2023-08-07T02:12:30;11.70;99.90
54576;DHT22;40472;53.486;14.542;2023-08-07T02:14:59;11.80;99.90
54576;DHT22;40472;53.486;14.542;2023-08-07T02:17:28;11.80;99.90
54576;DHT22;40472;53.486;14.542;2023-08-07T02:19:58;11.80;99.90
54576;DHT22;40472;53.486;14.542;2023-08-07T02:22:24;11.80;99.90
54576;DHT22;40472;53.486;14.542;2023-08-07T02:24:50;11.80;99.90
54576;DHT22;40472;53.486;14.542;2023-08-07T02:27:15;11.80;99.90
54576;DHT22;40472;53.486;14.542;2023-08-07T02:29:41;11.80;99.90
54576;DHT22;40472;53.486;14.542;2023-08-07T02:32:07;11.80;99.90
54576;DHT22;40472;53.486;14.542;2023-08-07T02:34:33;11.80;99.90
54576;DHT22;40472;53.486;14.542;2023-08-07T02:36:59;11.90;99.90
54576;DHT22;40472;53.486;14.542;2023-08-07T02:39:25;11.90;99.90
54576;DHT22;40472;53.486;14.542;2023-08-07T02:41:50;11.90;99.90
54576;DHT22;40472;53.486;14.542;2023-08-07T02:44:16;11.90;99.90
54576;DHT22;40472;53.486;14.542;2023-08-07T02:46:43;11.90;99.90
54576;DHT22;40472;53.486;14.542;2023-08-07T02:49:09;12.00;99.90
54576;DHT22;40472;53.486;14.542;2023-08-07T02:51:34;12.00;99.90
54576;DHT22;40472;53.486;14.542;2023-08-07T02:54:00;12.00;99.90
54576;DHT22;40472;53.486;14.542;2023-08-07T02:56:25;12.00;99.90
54576;DHT22;40472;53.486;14.542;2023-08-07T02:58:51;12.00;99.90
54576;DHT22;40472;53.486;14.542;2023-08-07T03:01:16;12.10;99.90
54576;DHT22;40472;53.486;14.542;2023-08-07T03:03:42;12.10;99.90
54576;DHT22;40472;53.486;14.542;2023-08-07T03:06:08;12.10;99.90
54576;DHT22;40472;53.486;14.542;2023-08-07T03:08:33;12.10;99.90
54576;DHT22;40472;53.486;14.542;2023-08-07T03:10:59;12.10;99.90
54576;DHT22;40472;53.486;14.542;2023-08-07T03:13:25;12.20;99.90
54576;DHT22;40472;53.486;14.542;2023-08-07T03:15:59;12.20;99.90
54576;DHT22;40472;53.486;14.542;2023-08-07T03:18:24;12.20;99.90
54576;DHT22;40472;53.486;14.542;2023-08-07T03:20:50;12.20;99.90
54576;DHT22;40472;53.486;14.542;2023-08-07T03:23:16;12.20;99.90
54576;DHT22;40472;53.486;14.542;2023-08-07T03:25:41;12.20;99.90
54576;DHT22;40472;53.486;14.542;2023-08-07T03:28:07;12.20;99.90
54576;DHT22;40472;53.486;14.542;2023-08-07T03:30:32;12.20;99.90
54576;DHT22;40472;53.486;14.542;2023-08-07T03:32:58;12.20;99.90
54576;DHT22;40472;53.486;14.542;2023-08-07T03:35:23;12.20;99.90
54576;DHT22;40472;53.486;14.542;2023-08-07T03:37:49;12.20;99.90
54576;DHT22;40472;53.486;14.542;2023-08-07T03:40:15;12.20;99.90
54576;DHT22;40472;53.486;14.542;2023-08-07T03:42:41;12.20;99.90
54576;DHT22;40472;53.486;14.542;2023-08-07T03:45:07;12.20;99.90
54576;DHT22;40472;53.486;14.542;2023-08-07T03:47:33;12.20;99.90
54576;DHT22;40472;53.486;14.542;2023-08-07T03:49:58;12.20;99.90
54576;DHT22;40472;53.486;14.542;2023-08-07T03:52:24;12.20;99.90
54576;DHT22;40472;53.486;14.542;2023-08-07T03:54:50;12.20;99.90
54576;DHT22;40472;53.486;14.542;2023-08-07T03:57:15;12.20;99.90
54576;DHT22;40472;53.486;14.542;2023-08-07T03:59:41;12.20;99.90
54576;DHT22;40472;53.486;14.542;2023-08-07T04:02:06;12.20;99.90
54576;DHT22;40472;53.486;14.542;2023-08-07T04:04:32;12.20;99.90
54576;DHT22;40472;53.486;14.542;2023-08-07T04:06:57;12.20;99.90
54576;DHT22;40472;53.486;14.542;2023-08-07T04:09:23;12.20;99.90
54576;DHT22;40472;53.486;14.542;2023-08-07T04:11:49;12.20;99.90
54576;DHT22;40472;53.486;14.542;2023-08-07T04:14:14;12.20;99.90
54576;DHT22;40472;53.486;14.542;2023-08-07T04:16:40;12.20;99.90
54576;DHT22;40472;53.486;14.542;2023-08-07T04:19:06;12.20;99.90
54576;DHT22;40472;53.486;14.542;2023-08-07T04:21:34;12.30;99.90
54576;DHT22;40472;53.486;14.542;2023-08-07T04:24:00;12.30;99.90
54576;DHT22;40472;53.486;14.542;2023-08-07T04:26:26;12.30;99.90
54576;DHT22;40472;53.486;14.542;2023-08-07T04:28:52;12.30;99.90
54576;DHT22;40472;53.486;14.542;2023-08-07T04:31:17;12.30;99.90
54576;DHT22;40472;53.486;14.542;2023-08-07T04:33:43;12.30;99.90
54576;DHT22;40472;53.486;14.542;2023-08-07T04:36:09;12.30;99.90
54576;DHT22;40472;53.486;14.542;2023-08-07T04:38:34;12.30;99.90
54576;DHT22;40472;53.486;14.542;2023-08-07T04:41:00;12.30;99.90
54576;DHT22;40472;53.486;14.542;2023-08-07T04:43:25;12.30;99.90
54576;DHT22;40472;53.486;14.542;2023-08-07T04:45:53;12.30;99.90
54576;DHT22;40472;53.486;14.542;2023-08-07T04:48:19;12.30;99.90
54576;DHT22;40472;53.486;14.542;2023-08-07T04:50:46;12.30;99.90
54576;DHT22;40472;53.486;14.542;2023-08-07T04:53:12;12.30;99.90
54576;DHT22;40472;53.486;14.542;2023-08-07T04:55:38;12.30;99.90
54576;DHT22;40472;53.486;14.542;2023-08-07T04:58:03;12.40;99.90
54576;DHT22;40472;53.486;14.542;2023-08-07T05:00:29;12.40;99.90
54576;DHT22;40472;53.486;14.542;2023-08-07T05:02:55;12.40;99.90
54576;DHT22;40472;53.486;14.542;2023-08-07T05:05:20;12.50;99.90
54576;DHT22;40472;53.486;14.542;2023-08-07T05:07:47;12.40;99.90
54576;DHT22;40472;53.486;14.542;2023-08-07T05:10:13;12.50;99.90
54576;DHT22;40472;53.486;14.542;2023-08-07T05:12:39;12.50;99.90
54576;DHT22;40472;53.486;14.542;2023-08-07T05:15:05;12.50;99.90
54576;DHT22;40472;53.486;14.542;2023-08-07T05:17:31;12.50;99.90
54576;DHT22;40472;53.486;14.542;2023-08-07T05:19:57;12.50;99.90
54576;DHT22;40472;53.486;14.542;2023-08-07T05:22:22;12.60;99.90
54576;DHT22;40472;53.486;14.542;2023-08-07T05:24:48;12.60;99.90
54576;DHT22;40472;53.486;14.542;2023-08-07T05:27:14;12.60;99.90
54576;DHT22;40472;53.486;14.542;2023-08-07T05:29:40;12.60;99.90
54576;DHT22;40472;53.486;14.542;2023-08-07T05:32:13;12.60;99.90
54576;DHT22;40472;53.486;14.542;2023-08-07T05:34:39;12.70;99.90
54576;DHT22;40472;53.486;14.542;2023-08-07T05:37:05;12.70;99.90
54576;DHT22;40472;53.486;14.542;2023-08-07T05:39:31;12.70;99.90
54576;DHT22;40472;53.486;14.542;2023-08-07T05:41:56;12.70;99.90
54576;DHT22;40472;53.486;14.542;2023-08-07T05:44:23;12.70;99.90
54576;DHT22;40472;53.486;14.542;2023-08-07T05:46:49;12.70;99.90
54576;DHT22;40472;53.486;14.542;2023-08-07T05:49:15;12.60;99.90
54576;DHT22;40472;53.486;14.542;2023-08-07T05:51:41;12.70;99.90
54576;DHT22;40472;53.486;14.542;2023-08-07T05:54:07;12.70;99.90
54576;DHT22;40472;53.486;14.542;2023-08-07T05:56:32;12.70;99.90
54576;DHT22;40472;53.486;14.542;2023-08-07T05:58:58;12.70;99.90
54576;DHT22;40472;53.486;14.542;2023-08-07T06:01:24;12.70;99.90
54576;DHT22;40472;53.486;14.542;2023-08-07T06:03:56;12.80;99.90
54576;DHT22;40472;53.486;14.542;2023-08-07T06:06:21;12.80;99.90
54576;DHT22;40472;53.486;14.542;2023-08-07T06:08:47;12.80;99.90
54576;DHT22;40472;53.486;14.542;2023-08-07T06:11:12;12.80;99.90
54576;DHT22;40472;53.486;14.542;2023-08-07T06:13:40;12.80;99.90
54576;DHT22;40472;53.486;14.542;2023-08-07T06:16:06;12.80;99.90
54576;DHT22;40472;53.486;14.542;2023-08-07T06:18:32;12.80;99.90
54576;DHT22;40472;53.486;14.542;2023-08-07T06:20:57;12.90;99.90
54576;DHT22;40472;53.486;14.542;2023-08-07T06:23:23;12.90;99.90
54576;DHT22;40472;53.486;14.542;2023-08-07T06:25:49;12.90;99.90
54576;DHT22;40472;53.486;14.542;2023-08-07T06:28:14;12.90;99.90
54576;DHT22;40472;53.486;14.542;2023-08-07T06:30:40;12.90;99.90
54576;DHT22;40472;53.486;14.542;2023-08-07T06:33:05;12.90;99.90
54576;DHT22;40472;53.486;14.542;2023-08-07T06:35:34;13.00;99.90
54576;DHT22;40472;53.486;14.542;2023-08-07T06:38:02;13.00;99.90
54576;DHT22;40472;53.486;14.542;2023-08-07T06:40:27;13.00;99.90
54576;DHT22;40472;53.486;14.542;2023-08-07T06:42:53;13.00;99.90
54576;DHT22;40472;53.486;14.542;2023-08-07T06:45:19;13.00;99.90
54576;DHT22;40472;53.486;14.542;2023-08-07T06:47:45;13.00;99.90
54576;DHT22;40472;53.486;14.542;2023-08-07T06:50:11;13.00;99.90
54576;DHT22;40472;53.486;14.542;2023-08-07T06:52:38;13.10;99.90
54576;DHT22;40472;53.486;14.542;2023-08-07T06:55:04;13.10;99.90
54576;DHT22;40472;53.486;14.542;2023-08-07T06:57:29;13.20;99.90
54576;DHT22;40472;53.486;14.542;2023-08-07T06:59:55;13.20;99.90
54576;DHT22;40472;53.486;14.542;2023-08-07T07:02:21;13.30;99.90
54576;DHT22;40472;53.486;14.542;2023-08-07T07:04:46;13.30;99.90
54576;DHT22;40472;53.486;14.542;2023-08-07T07:07:12;13.30;99.90
54576;DHT22;40472;53.486;14.542;2023-08-07T07:09:38;13.40;99.90
54576;DHT22;40472;53.486;14.542;2023-08-07T07:12:04;13.40;99.90
54576;DHT22;40472;53.486;14.542;2023-08-07T07:14:29;13.40;99.90
54576;DHT22;40472;53.486;14.542;2023-08-07T07:16:55;13.40;99.90
54576;DHT22;40472;53.486;14.542;2023-08-07T07:19:20;13.50;99.90
54576;DHT22;40472;53.486;14.542;2023-08-07T07:21:46;13.50;99.90
54576;DHT22;40472;53.486;14.542;2023-08-07T07:24:12;13.50;99.90
54576;DHT22;40472;53.486;14.542;2023-08-07T07:26:37;13.50;99.90
54576;DHT22;40472;53.486;14.542;2023-08-07T07:29:03;13.60;99.90
54576;DHT22;40472;53.486;14.542;2023-08-07T07:31:29;13.60;99.90
54576;DHT22;40472;53.486;14.542;2023-08-07T07:33:54;13.70;99.90
54576;DHT22;40472;53.486;14.542;2023-08-07T07:36:20;13.70;99.90
54576;DHT22;40472;53.486;14.542;2023-08-07T07:38:46;13.60;99.90
54576;DHT22;40472;53.486;14.542;2023-08-07T07:41:15;13.60;99.90
54576;DHT22;40472;53.486;14.542;2023-08-07T07:43:40;13.70;99.90
54576;DHT22;40472;53.486;14.542;2023-08-07T07:46:07;13.60;99.90
54576;DHT22;40472;53.486;14.542;2023-08-07T07:48:32;13.70;99.90
54576;DHT22;40472;53.486;14.542;2023-08-07T07:50:59;13.70;99.90
54576;DHT22;40472;53.486;14.542;2023-08-07T07:53:25;13.70;99.90
54576;DHT22;40472;53.486;14.542;2023-08-07T07:55:51;13.70;99.90
54576;DHT22;40472;53.486;14.542;2023-08-07T07:58:17;13.80;99.90
54576;DHT22;40472;53.486;14.542;2023-08-07T08:00:42;13.80;99.90
54576;DHT22;40472;53.486;14.542;2023-08-07T08:03:08;13.70;99.90
54576;DHT22;40472;53.486;14.542;2023-08-07T08:05:34;13.70;99.90
54576;DHT22;40472;53.486;14.542;2023-08-07T08:08:00;13.70;99.90
54576;DHT22;40472;53.486;14.542;2023-08-07T08:10:27;13.70;99.90
54576;DHT22;40472;53.486;14.542;2023-08-07T08:12:55;13.70;99.90
54576;DHT22;40472;53.486;14.542;2023-08-07T08:15:21;13.70;99.90
54576;DHT22;40472;53.486;14.542;2023-08-07T08:17:47;13.70;99.90
54576;DHT22;40472;53.486;14.542;2023-08-07T08:20:14;13.70;99.90
54576;DHT22;40472;53.486;14.542;2023-08-07T08:22:46;13.70;99.90
54576;DHT22;40472;53.486;14.542;2023-08-07T08:25:12;13.70;99.90
54576;DHT22;40472;53.486;14.542;2023-08-07T08:27:40;13.70;99.90
54576;DHT22;40472;53.486;14.542;2023-08-07T08:30:25;13.70;99.90
54576;DHT22;40472;53.486;14.542;2023-08-07T08:32:51;13.60;99.90
54576;DHT22;40472;53.486;14.542;2023-08-07T08:35:16;13.50;99.90
54576;DHT22;40472;53.486;14.542;2023-08-07T08:37:42;13.50;99.90
54576;DHT22;40472;53.486;14.542;2023-08-07T08:40:08;13.40;99.90
54576;DHT22;40472;53.486;14.542;2023-08-07T08:42:38;13.50;99.90
54576;DHT22;40472;53.486;14.542;2023-08-07T08:45:05;13.50;99.90
54576;DHT22;40472;53.486;14.542;2023-08-07T08:47:32;13.70;99.90
54576;DHT22;40472;53.486;14.542;2023-08-07T08:50:09;13.70;99.90
54576;DHT22;40472;53.486;14.542;2023-08-07T08:52:38;13.70;99.90
54576;DHT22;40472;53.486;14.542;2023-08-07T08:55:04;13.70;99.90
54576;DHT22;40472;53.486;14.542;2023-08-07T08:57:30;13.70;99.90
54576;DHT22;40472;53.486;14.542;2023-08-07T08:59:58;13.80;99.90
54576;DHT22;40472;53.486;14.542;2023-08-07T09:02:25;13.80;99.90
54576;DHT22;40472;53.486;14.542;2023-08-07T09:04:51;13.90;99.90
54576;DHT22;40472;53.486;14.542;2023-08-07T09:07:20;14.00;99.90
54576;DHT22;40472;53.486;14.542;2023-08-07T09:09:46;14.00;99.90
54576;DHT22;40472;53.486;14.542;2023-08-07T09:12:20;14.20;99.90
54576;DHT22;40472;53.486;14.542;2023-08-07T09:14:50;14.20;99.90
54576;DHT22;40472;53.486;14.542;2023-08-07T09:17:18;14.10;99.90
54576;DHT22;40472;53.486;14.542;2023-08-07T09:19:44;14.20;99.90
54576;DHT22;40472;53.486;14.542;2023-08-07T09:22:11;14.30;99.90
54576;DHT22;40472;53.486;14.542;2023-08-07T09:24:36;14.30;99.90
54576;DHT22;40472;53.486;14.542;2023-08-07T09:27:02;14.40;99.90
54576;DHT22;40472;53.486;14.542;2023-08-07T09:29:28;14.60;99.90
54576;DHT22;40472;53.486;14.542;2023-08-07T09:31:56;14.60;99.90
54576;DHT22;40472;53.486;14.542;2023-08-07T09:34:22;14.80;99.90
54576;DHT22;40472;53.486;14.542;2023-08-07T09:36:48;14.90;99.90
54576;DHT22;40472;53.486;14.542;2023-08-07T09:39:14;15.00;99.90
54576;DHT22;40472;53.486;14.542;2023-08-07T09:41:40;15.30;99.90
54576;DHT22;40472;53.486;14.542;2023-08-07T09:44:09;15.20;99.90
54576;DHT22;40472;53.486;14.542;2023-08-07T09:46:45;15.30;99.90
54576;DHT22;40472;53.486;14.542;2023-08-07T09:49:11;15.60;99.90
54576;DHT22;40472;53.486;14.542;2023-08-07T09:51:44;15.60;99.90
54576;DHT22;40472;53.486;14.542;2023-08-07T09:54:10;15.80;99.90
54576;DHT22;40472;53.486;14.542;2023-08-07T09:56:36;15.90;99.90
54576;DHT22;40472;53.486;14.542;2023-08-07T09:59:01;15.80;99.90
54576;DHT22;40472;53.486;14.542;2023-08-07T10:01:27;16.10;99.90
54576;DHT22;40472;53.486;14.542;2023-08-07T10:03:55;16.20;99.90
54576;DHT22;40472;53.486;14.542;2023-08-07T10:06:21;16.30;99.90
54576;DHT22;40472;53.486;14.542;2023-08-07T10:08:46;16.30;99.90
54576;DHT22;40472;53.486;14.542;2023-08-07T10:11:13;16.20;99.90
54576;DHT22;40472;53.486;14.542;2023-08-07T10:13:40;16.00;99.90
54576;DHT22;40472;53.486;14.542;2023-08-07T10:16:07;16.10;99.90
54576;DHT22;40472;53.486;14.542;2023-08-07T10:18:34;16.10;99.90
54576;DHT22;40472;53.486;14.542;2023-08-07T10:21:01;16.00;99.90
54576;DHT22;40472;53.486;14.542;2023-08-07T10:23:27;15.70;99.90
54576;DHT22;40472;53.486;14.542;2023-08-07T10:25:54;15.60;99.90
54576;DHT22;40472;53.486;14.542;2023-08-07T10:28:22;15.90;99.90
54576;DHT22;40472;53.486;14.542;2023-08-07T10:30:49;16.10;99.90
54576;DHT22;40472;53.486;14.542;2023-08-07T10:33:15;16.00;99.90
54576;DHT22;40472;53.486;14.542;2023-08-07T10:35:46;16.20;99.90
54576;DHT22;40472;53.486;14.542;2023-08-07T10:38:13;16.10;99.90
54576;DHT22;40472;53.486;14.542;2023-08-07T10:43:25;16.40;99.90
54576;DHT22;40472;53.486;14.542;2023-08-07T10:45:53;16.40;99.90
54576;DHT22;40472;53.486;14.542;2023-08-07T10:48:19;16.30;99.90
54576;DHT22;40472;53.486;14.542;2023-08-07T10:53:41;16.70;99.90
54576;DHT22;40472;53.486;14.542;2023-08-07T10:56:10;16.60;99.90
54576;DHT22;40472;53.486;14.542;2023-08-07T10:58:37;16.70;99.90
54576;DHT22;40472;53.486;14.542;2023-08-07T11:01:24;16.50;99.90
54576;DHT22;40472;53.486;14.542;2023-08-07T11:03:57;16.50;99.90
54576;DHT22;40472;53.486;14.542;2023-08-07T11:06:28;16.60;99.90
54576;DHT22;40472;53.486;14.542;2023-08-07T11:08:57;16.60;99.90
54576;DHT22;40472;53.486;14.542;2023-08-07T11:11:23;16.70;99.90
54576;DHT22;40472;53.486;14.542;2023-08-07T11:13:49;16.90;99.90
54576;DHT22;40472;53.486;14.542;2023-08-07T11:16:15;16.80;99.90
54576;DHT22;40472;53.486;14.542;2023-08-07T11:18:42;16.80;99.90
54576;DHT22;40472;53.486;14.542;2023-08-07T11:21:09;16.90;99.90
54576;DHT22;40472;53.486;14.542;2023-08-07T11:23:39;16.70;99.90
54576;DHT22;40472;53.486;14.542;2023-08-07T11:26:09;16.90;99.90
54576;DHT22;40472;53.486;14.542;2023-08-07T11:28:35;16.90;99.90
54576;DHT22;40472;53.486;14.542;2023-08-07T11:31:01;16.60;99.90
54576;DHT22;40472;53.486;14.542;2023-08-07T11:33:36;16.60;99.90
54576;DHT22;40472;53.486;14.542;2023-08-07T11:36:01;16.80;99.90
54576;DHT22;40472;53.486;14.542;2023-08-07T11:41:03;16.80;99.90
54576;DHT22;40472;53.486;14.542;2023-08-07T11:43:30;16.70;99.90
54576;DHT22;40472;53.486;14.542;2023-08-07T11:45:57;16.80;99.90
54576;DHT22;40472;53.486;14.542;2023-08-07T11:48:27;16.70;99.90
54576;DHT22;40472;53.486;14.542;2023-08-07T11:50:54;16.60;99.90
54576;DHT22;40472;53.486;14.542;2023-08-07T11:53:24;16.60;99.90
54576;DHT22;40472;53.486;14.542;2023-08-07T11:58:23;16.50;99.90
54576;DHT22;40472;53.486;14.542;2023-08-07T12:00:49;16.60;99.90
54576;DHT22;40472;53.486;14.542;2023-08-07T12:03:25;16.70;99.90
54576;DHT22;40472;53.486;14.542;2023-08-07T12:05:53;16.70;99.90
54576;DHT22;40472;53.486;14.542;2023-08-07T12:08:19;16.70;99.90
54576;DHT22;40472;53.486;14.542;2023-08-07T12:10:48;16.90;99.90
54576;DHT22;40472;53.486;14.542;2023-08-07T12:13:13;16.60;99.90
54576;DHT22;40472;53.486;14.542;2023-08-07T12:15:39;16.70;99.90
54576;DHT22;40472;53.486;14.542;2023-08-07T12:18:07;16.80;99.90
54576;DHT22;40472;53.486;14.542;2023-08-07T12:20:33;16.80;99.90
54576;DHT22;40472;53.486;14.542;2023-08-07T12:22:58;16.80;99.90
54576;DHT22;40472;53.486;14.542;2023-08-07T12:25:24;16.90;99.90
54576;DHT22;40472;53.486;14.542;2023-08-07T12:27:50;17.10;99.90
54576;DHT22;40472;53.486;14.542;2023-08-07T12:30:15;17.00;99.90
54576;DHT22;40472;53.486;14.542;2023-08-07T12:32:41;17.00;99.90
54576;DHT22;40472;53.486;14.542;2023-08-07T12:35:07;16.90;99.90
54576;DHT22;40472;53.486;14.542;2023-08-07T12:37:34;17.10;99.90
54576;DHT22;40472;53.486;14.542;2023-08-07T12:40:00;17.00;99.90
54576;DHT22;40472;53.486;14.542;2023-08-07T12:42:26;16.90;99.90
54576;DHT22;40472;53.486;14.542;2023-08-07T12:44:54;16.90;99.90
54576;DHT22;40472;53.486;14.542;2023-08-07T12:47:20;16.90;99.90
54576;DHT22;40472;53.486;14.542;2023-08-07T12:49:45;16.90;99.90
54576;DHT22;40472;53.486;14.542;2023-08-07T12:52:13;17.00;99.90
54576;DHT22;40472;53.486;14.542;2023-08-07T12:54:38;17.10;99.90
54576;DHT22;40472;53.486;14.542;2023-08-07T12:57:04;17.20;99.90
54576;DHT22;40472;53.486;14.542;2023-08-07T12:59:33;17.40;99.90
54576;DHT22;40472;53.486;14.542;2023-08-07T13:01:59;17.40;99.90
54576;DHT22;40472;53.486;14.542;2023-08-07T13:04:25;17.20;99.90
54576;DHT22;40472;53.486;14.542;2023-08-07T13:06:50;17.20;99.90
54576;DHT22;40472;53.486;14.542;2023-08-07T13:09:16;17.10;99.90
54576;DHT22;40472;53.486;14.542;2023-08-07T13:11:42;17.00;99.90
54576;DHT22;40472;53.486;14.542;2023-08-07T13:14:07;17.00;99.90
54576;DHT22;40472;53.486;14.542;2023-08-07T13:16:33;16.90;99.90
54576;DHT22;40472;53.486;14.542;2023-08-07T13:18:58;16.90;99.90
54576;DHT22;40472;53.486;14.542;2023-08-07T13:21:24;16.90;99.90
54576;DHT22;40472;53.486;14.542;2023-08-07T13:23:50;16.80;99.90
54576;DHT22;40472;53.486;14.542;2023-08-07T13:26:15;16.90;99.90
54576;DHT22;40472;53.486;14.542;2023-08-07T13:28:42;16.90;99.90
54576;DHT22;40472;53.486;14.542;2023-08-07T13:31:08;17.10;99.90
54576;DHT22;40472;53.486;14.542;2023-08-07T13:33:33;17.20;99.90
54576;DHT22;40472;53.486;14.542;2023-08-07T13:35:59;17.40;99.90
54576;DHT22;40472;53.486;14.542;2023-08-07T13:38:24;17.30;99.90
54576;DHT22;40472;53.486;14.542;2023-08-07T13:40:50;17.30;99.90
54576;DHT22;40472;53.486;14.542;2023-08-07T13:43:16;17.40;99.90
54576;DHT22;40472;53.486;14.542;2023-08-07T13:45:42;17.50;99.90
54576;DHT22;40472;53.486;14.542;2023-08-07T13:48:08;17.60;99.90
54576;DHT22;40472;53.486;14.542;2023-08-07T13:50:35;17.70;99.90
54576;DHT22;40472;53.486;14.542;2023-08-07T13:53:02;17.70;99.90
54576;DHT22;40472;53.486;14.542;2023-08-07T13:55:28;17.50;99.90
54576;DHT22;40472;53.486;14.542;2023-08-07T13:57:54;17.50;99.90
54576;DHT22;40472;53.486;14.542;2023-08-07T14:00:20;17.30;99.90
54576;DHT22;40472;53.486;14.542;2023-08-07T14:02:45;17.20;99.90
54576;DHT22;40472;53.486;14.542;2023-08-07T14:05:11;17.10;99.90
54576;DHT22;40472;53.486;14.542;2023-08-07T14:07:37;17.50;99.90
54576;DHT22;40472;53.486;14.542;2023-08-07T14:10:02;17.80;99.90
54576;DHT22;40472;53.486;14.542;2023-08-07T14:12:28;17.90;99.90
54576;DHT22;40472;53.486;14.542;2023-08-07T14:14:54;18.20;99.90
54576;DHT22;40472;53.486;14.542;2023-08-07T14:17:19;18.00;99.90
54576;DHT22;40472;53.486;14.542;2023-08-07T14:19:45;17.80;99.90
54576;DHT22;40472;53.486;14.542;2023-08-07T14:22:11;17.60;99.90
54576;DHT22;40472;53.486;14.542;2023-08-07T14:24:37;17.40;99.90
54576;DHT22;40472;53.486;14.542;2023-08-07T14:27:03;17.30;99.90
54576;DHT22;40472;53.486;14.542;2023-08-07T14:29:28;17.20;99.90
54576;DHT22;40472;53.486;14.542;2023-08-07T14:31:54;17.20;99.90
54576;DHT22;40472;53.486;14.542;2023-08-07T14:34:20;17.20;99.90
54576;DHT22;40472;53.486;14.542;2023-08-07T14:36:45;17.20;99.90
54576;DHT22;40472;53.486;14.542;2023-08-07T14:39:11;17.10;99.90
54576;DHT22;40472;53.486;14.542;2023-08-07T14:41:36;17.40;99.90
54576;DHT22;40472;53.486;14.542;2023-08-07T14:44:02;17.40;99.90
54576;DHT22;40472;53.486;14.542;2023-08-07T14:46:28;17.40;99.90
54576;DHT22;40472;53.486;14.542;2023-08-07T14:48:53;17.40;99.90
54576;DHT22;40472;53.486;14.542;2023-08-07T14:51:19;17.30;99.90
54576;DHT22;40472;53.486;14.542;2023-08-07T14:53:44;17.20;99.90
54576;DHT22;40472;53.486;14.542;2023-08-07T14:56:10;17.20;99.90
54576;DHT22;40472;53.486;14.542;2023-08-07T14:58:36;17.10;99.90
54576;DHT22;40472;53.486;14.542;2023-08-07T15:01:01;17.10;99.90
54576;DHT22;40472;53.486;14.542;2023-08-07T15:03:28;16.90;99.90
54576;DHT22;40472;53.486;14.542;2023-08-07T15:05:55;17.00;99.90
54576;DHT22;40472;53.486;14.542;2023-08-07T15:08:23;16.90;99.90
54576;DHT22;40472;53.486;14.542;2023-08-07T15:10:51;17.10;99.90
54576;DHT22;40472;53.486;14.542;2023-08-07T15:13:17;17.30;99.90
54576;DHT22;40472;53.486;14.542;2023-08-07T15:15:44;17.30;99.90
54576;DHT22;40472;53.486;14.542;2023-08-07T15:18:10;17.40;99.90
54576;DHT22;40472;53.486;14.542;2023-08-07T15:20:35;17.60;99.90
54576;DHT22;40472;53.486;14.542;2023-08-07T15:23:02;17.50;99.90
54576;DHT22;40472;53.486;14.542;2023-08-07T15:25:27;17.60;99.90
54576;DHT22;40472;53.486;14.542;2023-08-07T15:27:53;17.70;99.90